Time,TemperatureF,DewpointF,PressureIn,WindDirection,WindDirectionDegrees,WindSpeedMPH,WindSpeedGustMPH,Humidity,HourlyPrecipIn,Conditions,Clouds,dailyrainin,SoftwareType,DateUTC
2013-04-10 00:02:00,66.3,54.0,30.07,SSW,207,0.0,2.0,64,0.00,,,0.00,weatherlink.com 1.10,2013-04-10 04:02:00,
2013-04-10 00:17:00,66.3,53.0,30.08,SSW,211,1.0,3.0,63,0.00,,,0.00,weatherlink.com 1.10,2013-04-10 04:17:00,
2013-04-10 00:32:00,65.2,53.0,30.07,SSW,204,0.0,2.0,65,0.00,,,0.00,weatherlink.com 1.10,2013-04-10 04:32:00,
2013-04-10 00:47:00,64.3,53.0,30.08,SSW,208,2.0,3.0,66,0.00,,,0.00,weatherlink.com 1.10,2013-04-10 04:47:00,
2013-04-10 01:02:00,64.4,53.0,30.08,SSW,211,0.0,2.0,66,0.00,,,0.00,weatherlink.com 1.10,2013-04-10 05:02:00,
2013-04-10 01:17:00,64.4,52.0,30.08,SSE,163,1.0,2.0,65,0.00,,,0.00,weatherlink.com 1.10,2013-04-10 05:17:00,
2013-04-10 01:32:00,64.3,52.0,30.08,SSW,205,1.0,2.0,65,0.00,,,0.00,weatherlink.com 1.10,2013-04-10 05:32:00,
2013-04-10 01:47:00,63.8,52.0,30.08,SW,224,2.0,3.0,66,0.00,,,0.00,weatherlink.com 1.10,2013-04-10 05:47:00,
2013-04-10 02:02:00,64.5,52.0,30.08,SW,218,2.0,3.0,65,0.00,,,0.00,weatherlink.com 1.10,2013-04-10 06:02:00,
2013-04-10 02:17:00,64.2,53.0,30.07,South,172,2.0,3.0,66,0.00,,,0.00,weatherlink.com 1.10,2013-04-10 06:17:00,
2013-04-10 02:32:00,64.3,53.0,30.07,SSW,209,2.0,2.0,66,0.00,,,0.00,weatherlink.com 1.10,2013-04-10 06:32:00,
2013-04-10 02:47:00,64.3,53.0,30.07,South,173,0.0,3.0,66,0.00,,,0.00,weatherlink.com 1.10,2013-04-10 06:47:00,
2013-04-10 03:02:00,64.1,53.0,30.06,SSW,198,2.0,2.0,67,0.00,,,0.00,weatherlink.com 1.10,2013-04-10 07:02:00,
2013-04-10 03:17:00,64.0,53.0,30.06,SSW,211,2.0,2.0,67,0.00,,,0.00,weatherlink.com 1.10,2013-04-10 07:17:00,
2013-04-10 03:32:00,63.8,53.0,30.05,SSW,198,1.0,3.0,68,0.00,,,0.00,weatherlink.com 1.10,2013-04-10 07:32:00,
2013-04-10 03:47:00,63.4,53.0,30.05,SW,222,1.0,2.0,69,0.00,,,0.00,weatherlink.com 1.10,2013-04-10 07:47:00,
2013-04-10 04:02:00,63.2,53.0,30.05,SW,214,3.0,3.0,69,0.00,,,0.00,weatherlink.com 1.10,2013-04-10 08:02:00,
2013-04-10 04:17:00,63.1,53.0,30.05,SSW,198,0.0,2.0,69,0.00,,,0.00,weatherlink.com 1.10,2013-04-10 08:17:00,
2013-04-10 04:32:00,62.7,53.0,30.05,SSW,207,0.0,2.0,70,0.00,,,0.00,weatherlink.com 1.10,2013-04-10 08:32:00,
2013-04-10 04:47:00,62.6,53.0,30.05,SSW,198,0.0,2.0,70,0.00,,,0.00,weatherlink.com 1.10,2013-04-10 08:47:00,
2013-04-10 05:02:00,59.9,52.0,30.05,SSW,212,0.0,1.0,75,0.00,,,0.00,weatherlink.com 1.10,2013-04-10 09:02:00,
2013-04-10 05:18:00,58.5,52.0,30.05,SW,226,2.0,2.0,78,0.00,,,0.00,weatherlink.com 1.10,2013-04-10 09:18:00,
2013-04-10 05:33:00,58.1,52.0,30.06,South,175,0.0,1.0,81,0.00,,,0.00,weatherlink.com 1.10,2013-04-10 09:33:00,
2013-04-10 05:48:00,58.0,52.0,30.06,West,260,0.0,0.0,80,0.00,,,0.00,weatherlink.com 1.10,2013-04-10 09:48:00,
2013-04-10 06:03:00,57.9,52.0,30.06,SSE,166,0.0,2.0,80,0.00,,,0.00,weatherlink.com 1.10,2013-04-10 10:03:00,
2013-04-10 06:18:00,57.2,51.0,30.05,South,186,0.0,2.0,81,0.00,,,0.00,weatherlink.com 1.10,2013-04-10 10:18:00,
2013-04-10 06:33:00,57.5,52.0,30.05,South,188,0.0,1.0,81,0.00,,,0.00,weatherlink.com 1.10,2013-04-10 10:33:00,
2013-04-10 06:48:00,56.7,52.0,30.06,South,176,1.0,2.0,83,0.00,,,0.00,weatherlink.com 1.10,2013-04-10 10:48:00,
2013-04-10 06:53:00,56.7,51.6,30.06,South,190,1.0,2.0,83,0.00,,,0.00,Wunderground v.1.15,2013-04-10 10:53:00,
2013-04-10 06:59:00,56.9,51.8,30.06,South,188,1.0,2.0,83,0.00,,,0.00,Wunderground v.1.15,2013-04-10 10:59:00,
2013-04-10 07:05:00,57.2,51.8,30.06,South,189,0.0,1.0,82,0.00,,,0.00,Wunderground v.1.15,2013-04-10 11:05:00,
2013-04-10 07:10:00,57.1,51.7,30.06,South,188,0.0,0.0,82,0.00,,,0.00,Wunderground v.1.15,2013-04-10 11:10:00,
2013-04-10 07:17:00,56.9,51.8,30.06,South,189,0.0,1.0,83,0.00,,,0.00,Wunderground v.1.15,2013-04-10 11:17:00,
2013-04-10 07:22:00,57.0,51.9,30.06,South,189,1.0,1.0,83,0.00,,,0.00,Wunderground v.1.15,2013-04-10 11:22:00,
2013-04-10 07:27:00,57.2,51.8,30.07,South,188,1.0,1.0,82,0.00,,,0.00,Wunderground v.1.15,2013-04-10 11:27:00,
2013-04-10 07:33:00,56.9,51.8,30.07,SW,218,1.0,1.0,83,0.00,,,0.00,Wunderground v.1.15,2013-04-10 11:33:00,
2013-04-10 07:38:00,56.9,51.8,30.07,South,187,0.0,1.0,83,0.00,,,0.00,Wunderground v.1.15,2013-04-10 11:38:00,
2013-04-10 07:43:00,57.0,51.9,30.07,South,188,0.0,0.0,83,0.00,,,0.00,Wunderground v.1.15,2013-04-10 11:43:00,
2013-04-10 07:49:00,57.2,52.0,30.07,South,188,0.0,0.0,83,0.00,,,0.00,weatherlink.com 1.10,2013-04-10 11:49:00,
2013-04-10 07:54:00,57.3,52.2,30.07,South,189,0.0,1.0,83,0.00,,,0.00,Wunderground v.1.15,2013-04-10 11:54:00,
2013-04-10 07:59:00,57.3,52.2,30.07,South,188,0.0,1.0,83,0.00,,,0.00,Wunderground v.1.15,2013-04-10 11:59:00,
2013-04-10 08:05:00,57.2,52.0,30.07,South,188,0.0,0.0,83,0.00,,,0.00,weatherlink.com 1.10,2013-04-10 12:05:00,
2013-04-10 08:19:00,57.4,52.0,30.07,South,188,0.0,0.0,83,0.00,,,0.00,weatherlink.com 1.10,2013-04-10 12:19:00,
2013-04-10 08:34:00,58.9,53.0,30.07,South,189,0.0,0.0,81,0.00,,,0.00,weatherlink.com 1.10,2013-04-10 12:34:00,
2013-04-10 08:49:00,60.7,54.0,30.07,South,189,0.0,0.0,78,0.00,,,0.00,weatherlink.com 1.10,2013-04-10 12:49:00,
2013-04-10 09:04:00,59.8,53.0,30.07,ENE,72,0.0,0.0,78,0.00,,,0.00,weatherlink.com 1.10,2013-04-10 13:04:00,
2013-04-10 09:19:00,61.3,54.0,30.08,ENE,72,0.0,0.0,76,0.00,,,0.00,weatherlink.com 1.10,2013-04-10 13:19:00,
2013-04-10 09:34:00,62.0,55.0,30.08,ENE,61,0.0,0.0,77,0.00,,,0.00,weatherlink.com 1.10,2013-04-10 13:34:00,
2013-04-10 09:49:00,62.8,56.0,30.08,ENE,59,0.0,0.0,77,0.00,,,0.00,weatherlink.com 1.10,2013-04-10 13:49:00,
2013-04-10 10:04:00,64.3,55.0,30.07,East,95,0.0,0.0,73,0.00,,,0.00,weatherlink.com 1.10,2013-04-10 14:04:00,
2013-04-10 10:19:00,66.1,56.0,30.07,ENE,65,2.0,2.0,70,0.00,,,0.00,weatherlink.com 1.10,2013-04-10 14:19:00,
2013-04-10 10:34:00,67.7,58.0,30.07,NNE,15,2.0,2.0,70,0.00,,,0.00,weatherlink.com 1.10,2013-04-10 14:34:00,
2013-04-10 10:49:00,69.4,57.0,30.06,ENE,68,1.0,4.0,66,0.00,,,0.00,weatherlink.com 1.10,2013-04-10 14:49:00,
2013-04-10 11:04:00,72.1,58.0,30.06,NNW,341,2.0,4.0,61,0.00,,,0.00,weatherlink.com 1.10,2013-04-10 15:04:00,
2013-04-10 11:19:00,73.3,57.0,30.06,NNW,345,3.0,4.0,58,0.00,,,0.00,weatherlink.com 1.10,2013-04-10 15:19:00,
2013-04-10 11:49:00,74.6,57.0,30.07,North,354,3.0,5.0,54,0.00,,,0.00,weatherlink.com 1.10,2013-04-10 15:49:00,
2013-04-10 12:04:00,75.8,57.0,30.06,ENE,61,5.0,5.0,52,0.00,,,0.00,weatherlink.com 1.10,2013-04-10 16:04:00,
2013-04-10 12:19:00,76.2,56.0,30.06,ENE,67,0.0,6.0,50,0.00,,,0.00,weatherlink.com 1.10,2013-04-10 16:19:00,
2013-04-10 12:34:00,76.7,57.0,30.05,NNW,343,3.0,4.0,50,0.00,,,0.00,weatherlink.com 1.10,2013-04-10 16:34:00,
2013-04-10 12:49:00,76.6,56.0,30.04,NNW,339,5.0,6.0,49,0.00,,,0.00,weatherlink.com 1.10,2013-04-10 16:49:00,
2013-04-10 13:04:00,77.0,56.0,30.04,NNE,19,1.0,6.0,49,0.00,,,0.00,weatherlink.com 1.10,2013-04-10 17:04:00,
2013-04-10 13:19:00,76.8,56.0,30.03,NE,35,3.0,7.0,48,0.00,,,0.00,weatherlink.com 1.10,2013-04-10 17:19:00,
2013-04-10 13:34:00,78.0,56.0,30.02,North,349,5.0,6.0,47,0.00,,,0.00,weatherlink.com 1.10,2013-04-10 17:34:00,
2013-04-10 13:49:00,78.4,55.0,30.01,NW,325,6.0,8.0,45,0.00,,,0.00,weatherlink.com 1.10,2013-04-10 17:49:00,
2013-04-10 14:04:00,78.7,56.0,30.00,NNW,345,4.0,7.0,45,0.00,,,0.00,weatherlink.com 1.10,2013-04-10 18:04:00,
2013-04-10 14:19:00,79.2,55.0,30.00,NNW,336,5.0,6.0,44,0.00,,,0.00,weatherlink.com 1.10,2013-04-10 18:19:00,
2013-04-10 14:35:00,80.0,55.0,30.00,NNW,335,6.0,8.0,43,0.00,,,0.00,weatherlink.com 1.10,2013-04-10 18:35:00,
2013-04-10 14:50:00,80.0,55.0,29.99,NNW,345,6.0,8.0,43,0.00,,,0.00,weatherlink.com 1.10,2013-04-10 18:50:00,
2013-04-10 15:05:00,80.8,55.0,29.98,NE,53,2.0,6.0,41,0.00,,,0.00,weatherlink.com 1.10,2013-04-10 19:05:00,
2013-04-10 15:20:00,82.0,57.0,29.98,ESE,117,0.0,4.0,42,0.00,,,0.00,weatherlink.com 1.10,2013-04-10 19:20:00,
2013-04-10 15:35:00,81.9,55.0,29.96,South,173,1.0,8.0,40,0.00,,,0.00,weatherlink.com 1.10,2013-04-10 19:35:00,
2013-04-10 15:50:00,81.3,55.0,29.96,NW,309,0.0,7.0,41,0.00,,,0.00,weatherlink.com 1.10,2013-04-10 19:50:00,
2013-04-10 16:05:00,82.3,56.0,29.95,NNW,328,3.0,4.0,41,0.00,,,0.00,weatherlink.com 1.10,2013-04-10 20:05:00,
2013-04-10 16:20:00,82.1,56.0,29.94,ENE,77,4.0,7.0,41,0.00,,,0.00,weatherlink.com 1.10,2013-04-10 20:20:00,
2013-04-10 16:35:00,82.3,56.0,29.92,NNW,329,1.0,8.0,41,0.00,,,0.00,weatherlink.com 1.10,2013-04-10 20:35:00,
2013-04-10 16:50:00,82.0,56.0,29.92,West,263,4.0,8.0,41,0.00,,,0.00,weatherlink.com 1.10,2013-04-10 20:50:00,
2013-04-10 17:05:00,81.7,56.0,29.91,WSW,249,6.0,12.0,42,0.00,,,0.00,weatherlink.com 1.10,2013-04-10 21:05:00,
2013-04-10 17:20:00,81.3,56.0,29.90,NE,36,2.0,9.0,42,0.00,,,0.00,weatherlink.com 1.10,2013-04-10 21:20:00,
2013-04-10 17:31:00,80.3,56.4,29.90,NW,308,3.0,3.0,44,0.00,,,0.00,Wunderground v.1.15,2013-04-10 21:31:00,
2013-04-10 17:37:00,79.9,56.0,29.90,NW,313,2.0,4.0,44,0.00,,,0.00,Wunderground v.1.15,2013-04-10 21:37:00,
2013-04-10 17:42:00,79.8,55.9,29.90,SSW,210,2.0,2.0,44,0.00,,,0.00,Wunderground v.1.15,2013-04-10 21:42:00,
2013-04-10 17:48:00,80.0,56.1,29.90,South,171,2.0,7.0,44,0.00,,,0.00,Wunderground v.1.15,2013-04-10 21:48:00,
2013-04-10 17:53:00,80.2,55.7,29.90,SSW,195,2.0,3.0,43,0.00,,,0.00,Wunderground v.1.15,2013-04-10 21:53:00,
2013-04-10 17:59:00,80.5,55.9,29.90,SE,146,3.0,5.0,43,0.00,,,0.00,Wunderground v.1.15,2013-04-10 21:59:00,
2013-04-10 18:04:00,80.6,56.0,29.90,SW,236,3.0,5.0,43,0.00,,,0.00,Wunderground v.1.15,2013-04-10 22:04:00,
2013-04-10 18:10:00,80.4,55.2,29.89,SW,222,4.0,7.0,42,0.00,,,0.00,Wunderground v.1.15,2013-04-10 22:10:00,
2013-04-10 18:16:00,80.4,55.9,29.89,SSE,149,4.0,9.0,43,0.00,,,0.00,Wunderground v.1.15,2013-04-10 22:16:00,
2013-04-10 18:22:00,80.2,55.7,29.89,SSE,160,2.0,5.0,43,0.00,,,0.00,Wunderground v.1.15,2013-04-10 22:22:00,
2013-04-10 18:27:00,80.0,55.5,29.89,ESE,109,2.0,5.0,43,0.00,,,0.00,Wunderground v.1.15,2013-04-10 22:27:00,
2013-04-10 18:33:00,80.0,55.5,29.89,SE,131,3.0,3.0,43,0.00,,,0.00,Wunderground v.1.15,2013-04-10 22:33:00,
2013-04-10 18:39:00,80.0,54.8,29.89,South,184,2.0,3.0,42,0.00,,,0.00,Wunderground v.1.15,2013-04-10 22:39:00,
2013-04-10 18:44:00,80.0,55.5,29.89,SW,217,2.0,9.0,43,0.00,,,0.00,Wunderground v.1.15,2013-04-10 22:44:00,
2013-04-10 18:50:00,79.9,55.4,29.89,WSW,257,2.0,2.0,43,0.00,,,0.00,Wunderground v.1.15,2013-04-10 22:50:00,
2013-04-10 18:55:00,79.7,54.6,29.89,ESE,114,3.0,9.0,42,0.00,,,0.00,Wunderground v.1.15,2013-04-10 22:55:00,
2013-04-10 19:00:00,79.4,55.0,29.88,SW,229,3.0,4.0,43,0.00,,,0.00,Wunderground v.1.15,2013-04-10 23:00:00,
2013-04-10 19:07:00,78.9,55.1,29.88,SSE,160,3.0,5.0,44,0.00,,,0.00,Wunderground v.1.15,2013-04-10 23:07:00,
2013-04-10 19:12:00,78.5,54.8,29.88,SSE,153,4.0,5.0,44,0.00,,,0.00,Wunderground v.1.15,2013-04-10 23:12:00,
2013-04-10 19:18:00,78.3,55.8,29.89,SE,135,3.0,5.0,46,0.00,,,0.00,Wunderground v.1.15,2013-04-10 23:18:00,
2013-04-10 19:23:00,77.7,55.3,29.89,SSW,207,3.0,4.0,46,0.00,,,0.00,Wunderground v.1.15,2013-04-10 23:23:00,
2013-04-10 19:29:00,77.4,55.6,29.89,SSW,206,2.0,4.0,47,0.00,,,0.00,Wunderground v.1.15,2013-04-10 23:29:00,
2013-04-10 19:35:00,77.0,55.8,29.89,SSE,149,3.0,5.0,48,0.00,,,0.00,Wunderground v.1.15,2013-04-10 23:35:00,
2013-04-10 19:41:00,76.2,55.6,29.89,SE,127,3.0,8.0,49,0.00,,,0.00,Wunderground v.1.15,2013-04-10 23:41:00,
2013-04-10 19:47:00,75.7,55.7,29.89,SE,137,3.0,8.0,50,0.00,,,0.00,Wunderground v.1.15,2013-04-10 23:47:00,
2013-04-10 19:52:00,75.4,56.0,29.89,SE,136,3.0,8.0,51,0.00,,,0.00,Wunderground v.1.15,2013-04-10 23:52:00,
2013-04-10 19:58:00,74.7,55.9,29.89,SE,146,2.0,8.0,52,0.00,,,0.00,Wunderground v.1.15,2013-04-10 23:58:00,
2013-04-10 20:03:00,74.2,56.0,29.89,SSE,147,2.0,3.0,53,0.00,,,0.00,Wunderground v.1.15,2013-04-11 00:03:00,
2013-04-10 20:09:00,73.9,56.2,29.90,SSE,160,2.0,3.0,54,0.00,,,0.00,Wunderground v.1.15,2013-04-11 00:09:00,
2013-04-10 20:21:00,72.9,56.0,29.89,SSE,152,0.0,7.0,56,0.00,,,0.00,weatherlink.com 1.10,2013-04-11 00:21:00,
2013-04-10 20:36:00,72.5,56.0,29.89,SSE,167,1.0,8.0,56,0.00,,,0.00,weatherlink.com 1.10,2013-04-11 00:36:00,
2013-04-10 20:51:00,71.6,55.0,29.89,South,178,2.0,8.0,57,0.00,,,0.00,weatherlink.com 1.10,2013-04-11 00:51:00,
2013-04-10 21:06:00,70.5,55.0,29.89,SE,138,0.0,3.0,59,0.00,,,0.00,weatherlink.com 1.10,2013-04-11 01:06:00,
2013-04-10 21:21:00,70.0,55.0,29.90,South,181,8.0,8.0,59,0.00,,,0.00,weatherlink.com 1.10,2013-04-11 01:21:00,
2013-04-10 21:36:00,70.1,55.0,29.90,East,79,3.0,8.0,60,0.00,,,0.00,weatherlink.com 1.10,2013-04-11 01:36:00,
2013-04-10 21:42:00,69.8,55.3,29.90,SE,136,2.0,4.0,60,0.00,,,0.00,Wunderground v.1.15,2013-04-11 01:42:00,
2013-04-10 21:47:00,69.6,55.1,29.90,SSE,158,2.0,4.0,60,0.00,,,0.00,Wunderground v.1.15,2013-04-11 01:47:00,
2013-04-10 22:06:00,69.3,55.0,29.91,SW,232,1.0,5.0,61,0.00,,,0.00,weatherlink.com 1.10,2013-04-11 02:06:00,
2013-04-10 22:21:00,68.9,55.0,29.90,SSE,157,0.0,5.0,62,0.00,,,0.00,weatherlink.com 1.10,2013-04-11 02:21:00,
2013-04-10 22:36:00,68.6,55.0,29.90,SSW,195,0.0,5.0,63,0.00,,,0.00,weatherlink.com 1.10,2013-04-11 02:36:00,
2013-04-10 22:51:00,68.1,55.0,29.90,SSW,202,0.0,2.0,63,0.00,,,0.00,weatherlink.com 1.10,2013-04-11 02:51:00,
2013-04-10 23:07:00,67.0,55.0,29.90,SSW,207,1.0,2.0,65,0.00,,,0.00,weatherlink.com 1.10,2013-04-11 03:07:00,
2013-04-10 23:21:00,67.0,55.0,29.89,NE,44,1.0,2.0,66,0.00,,,0.00,weatherlink.com 1.10,2013-04-11 03:21:00,
2013-04-10 23:37:00,66.5,55.0,29.90,NW,315,0.0,4.0,66,0.00,,,0.00,weatherlink.com 1.10,2013-04-11 03:37:00,
2013-04-10 23:52:00,67.0,55.0,29.91,North,353,4.0,5.0,65,0.00,,,0.00,weatherlink.com 1.10,2013-04-11 03:52:00,